Time;durP1;ratioP1;P1;durP2;ratioP2;P2;SDS_P1;SDS_P2;PMS_P1;PMS_P2;Temp;Humidity;BMP_temperature;BMP_pressure;BME280_temperature;BME280_humidity;BME280_pressure;Samples;Min_cycle;Max_cycle;Signal;HPM_P1;HPM_P2
2023/12/25 00:01:13;;;;;;;15.48;6.90;;;;;;;11.35;59.10;100310.06;5092229;28;20114;-88
2023/12/25 00:03:38;;;;;;;11.18;7.00;;;;;;;11.14;58.82;100274.28;5092010;28;20464;-88
2023/12/25 00:06:04;;;;;;;31.27;7.82;;;;;;;11.21;58.74;100297.84;5056228;28;20036;-87
2023/12/25 00:08:29;;;;;;;21.73;8.95;;;;;;;10.99;59.18;100249.63;5092839;28;20038;-86
2023/12/25 00:10:55;;;;;;;11.93;7.38;;;;;;;11.17;58.41;100279.41;5092970;28;20704;-87
2023/12/25 00:13:21;;;;;;;10.60;6.82;;;;;;;11.30;58.90;100307.78;5092617;28;20032;-88
2023/12/25 00:15:46;;;;;;;11.82;7.40;;;;;;;11.31;58.55;100305.97;5092947;28;20102;-87
2023/12/25 00:18:12;;;;;;;13.80;7.43;;;;;;;11.31;58.99;100324.81;5094503;28;20415;-87
2023/12/25 00:20:38;;;;;;;14.57;6.88;;;;;;;10.69;58.99;100223.59;5108908;28;20024;-90
2023/12/25 00:23:04;;;;;;;19.15;6.82;;;;;;;11.13;59.09;100299.53;5116760;28;20043;-91
2023/12/25 00:25:29;;;;;;;11.18;6.35;;;;;;;11.03;59.43;100293.25;5098791;28;20048;-87
2023/12/25 00:27:55;;;;;;;18.52;7.60;;;;;;;10.90;59.42;100305.09;5092851;28;20107;-87
2023/12/25 00:30:20;;;;;;;15.90;7.32;;;;;;;10.64;59.61;100282.28;5109718;28;20507;-86
2023/12/25 00:32:46;;;;;;;15.52;6.13;;;;;;;10.82;60.08;100320.22;5109450;28;20115;-86
2023/12/25 00:35:11;;;;;;;16.65;8.65;;;;;;;10.68;60.18;100296.34;5088793;28;20120;-85
2023/12/25 00:37:37;;;;;;;19.10;7.45;;;;;;;10.63;59.61;100303.97;5089773;28;20067;-85
2023/12/25 00:40:03;;;;;;;23.88;7.70;;;;;;;10.40;60.66;100284.44;5089766;28;20533;-86
2023/12/25 00:42:29;;;;;;;16.92;8.27;;;;;;;10.26;60.79;100279.41;5072225;28;20515;-86
2023/12/25 00:44:54;;;;;;;12.90;6.97;;;;;;;10.45;60.97;100319.84;5089093;28;20048;-87
2023/12/25 00:47:20;;;;;;;14.50;7.55;;;;;;;10.47;60.98;100328.63;5089113;28;20131;-87
2023/12/25 00:49:45;;;;;;;26.52;9.50;;;;;;;10.41;60.95;100329.16;5088850;28;20440;-87
2023/12/25 00:52:14;;;;;;;17.70;7.95;;;;;;;10.47;60.86;100334.00;5091304;28;20028;-86
2023/12/25 00:54:39;;;;;;;17.65;7.38;;;;;;;10.40;61.18;100332.00;5090465;28;20039;-84
2023/12/25 00:57:05;;;;;;;14.35;7.10;;;;;;;10.33;61.15;100320.91;5110657;28;20036;-87
2023/12/25 00:59:30;;;;;;;8.65;6.15;;;;;;;9.95;61.52;100256.06;5089004;28;20172;-87
2023/12/25 01:01:56;;;;;;;7.63;5.63;;;;;;;10.28;61.43;100312.34;5089212;28;20616;-86
2023/12/25 01:04:22;;;;;;;10.73;6.07;;;;;;;10.42;61.26;100330.00;5091107;28;20107;-86
2023/12/25 01:06:47;;;;;;;10.73;5.90;;;;;;;10.37;61.28;100290.06;5076319;28;20119;-87
2023/12/25 01:09:13;;;;;;;11.55;5.53;;;;;;;10.22;61.41;100251.91;5092259;28;20063;-88
2023/12/25 01:11:42;;;;;;;14.45;7.85;;;;;;;10.56;61.17;100311.69;5114684;28;20028;-91
2023/12/25 01:14:11;;;;;;;18.35;9.02;;;;;;;10.63;61.18;100318.25;5111744;28;20028;-84
2023/12/25 01:16:37;;;;;;;11.85;6.72;;;;;;;10.61;60.81;100301.38;5092146;28;20056;-87
2023/12/25 01:19:03;;;;;;;17.05;6.53;;;;;;;10.72;60.42;100301.31;5091856;28;20032;-87
2023/12/25 01:21:29;;;;;;;9.43;4.65;;;;;;;10.75;60.48;100309.13;5089372;28;20034;-86
2023/12/25 01:23:54;;;;;;;9.43;5.85;;;;;;;10.48;60.63;100240.75;5070372;28;20158;-86
2023/12/25 01:26:20;;;;;;;10.95;6.30;;;;;;;10.66;60.08;100263.34;5070729;28;20056;-88
2023/12/25 01:28:45;;;;;;;11.40;5.43;;;;;;;10.86;60.09;100281.28;5070405;28;20059;-87
2023/12/25 01:31:11;;;;;;;9.52;5.97;;;;;;;10.75;59.95;100252.66;5076680;28;20504;-87
2023/12/25 01:33:37;;;;;;;8.80;5.75;;;;;;;11.00;59.58;100288.13;5089524;28;20020;-88
2023/12/25 01:36:03;;;;;;;13.10;6.28;;;;;;;10.45;59.53;100193.50;5090711;28;20063;-86
2023/12/25 01:38:28;;;;;;;16.83;5.80;;;;;;;10.78;59.46;100248.81;5090911;28;20039;-86
2023/12/25 01:40:54;;;;;;;11.38;6.20;;;;;;;10.95;59.86;100276.94;5090734;28;20035;-84
2023/12/25 01:43:19;;;;;;;7.22;5.20;;;;;;;10.77;59.41;100271.31;5090872;28;20118;-85
2023/12/25 01:45:45;;;;;;;10.13;6.25;;;;;;;10.59;59.89;100230.75;5090762;28;20118;-85
2023/12/25 01:48:12;;;;;;;14.98;6.90;;;;;;;10.75;59.92;100243.72;5090435;28;20066;-86
2023/12/25 01:50:39;;;;;;;11.38;6.85;;;;;;;10.89;59.92;100257.66;5089758;28;20115;-86
2023/12/25 01:53:05;;;;;;;9.25;6.60;;;;;;;10.77;59.76;100239.91;5092636;28;20048;-86
2023/12/25 01:55:30;;;;;;;10.73;7.07;;;;;;;10.93;59.75;100250.16;5094677;28;20522;-84
2023/12/25 01:57:56;;;;;;;14.57;6.97;;;;;;;10.77;59.68;100229.13;5094551;28;20040;-85
2023/12/25 02:00:22;;;;;;;11.60;7.40;;;;;;;10.83;59.09;100241.19;5103239;28;20020;-91
2023/12/25 02:02:48;;;;;;;14.02;7.20;;;;;;;10.81;59.30;100257.47;5114976;28;20024;-90
2023/12/25 02:05:14;;;;;;;14.45;7.45;;;;;;;10.73;59.58;100241.16;5100695;28;20021;-86
2023/12/25 02:07:42;;;;;;;10.85;7.25;;;;;;;10.51;60.10;100203.72;5091449;28;20117;-87
2023/12/25 02:10:08;;;;;;;13.07;8.13;;;;;;;10.79;59.85;100251.38;5090903;28;20020;-85
2023/12/25 02:12:34;;;;;;;15.05;9.68;;;;;;;10.63;59.77;100242.97;5089823;28;20593;-86
2023/12/25 02:15:01;;;;;;;18.38;9.77;;;;;;;10.37;60.25;100220.19;5091447;28;20043;-89
2023/12/25 02:17:27;;;;;;;19.35;9.77;;;;;;;10.33;60.75;100235.75;5091065;28;20032;-86
2023/12/25 02:19:54;;;;;;;16.50;9.38;;;;;;;10.24;60.51;100236.50;5091114;28;20048;-86
2023/12/25 02:22:19;;;;;;;17.40;9.95;;;;;;;10.12;61.30;100236.69;5090568;28;20030;-86
2023/12/25 02:25:07;;;;;;;20.88;12.05;;;;;;;10.10;61.44;100249.41;5090770;28;20020;-85
2023/12/25 02:27:33;;;;;;;33.80;14.10;;;;;;;9.97;62.07;100224.59;5090728;28;20059;-87
2023/12/25 02:30:00;;;;;;;20.00;13.18;;;;;;;10.08;61.96;100235.25;5090237;28;20113;-88
2023/12/25 02:32:29;;;;;;;26.35;14.13;;;;;;;10.23;61.88;100269.75;5091099;28;20127;-85
2023/12/25 02:34:54;;;;;;;23.88;12.52;;;;;;;10.06;61.70;100248.81;5090158;28;20063;-84
2023/12/25 02:37:20;;;;;;;21.00;11.73;;;;;;;10.13;62.01;100287.66;5090586;28;20505;-86
2023/12/25 02:39:46;;;;;;;23.00;11.77;;;;;;;9.99;62.16;100281.72;5090128;28;20039;-86
2023/12/25 02:42:11;;;;;;;17.60;11.05;;;;;;;9.94;62.46;100282.09;5091369;28;20020;-85
2023/12/25 02:44:37;;;;;;;18.52;11.07;;;;;;;9.87;62.68;100259.44;5093005;28;20020;-86
2023/12/25 02:47:02;;;;;;;16.63;11.68;;;;;;;9.78;62.83;100238.72;5100365;28;20372;-87
2023/12/25 02:49:28;;;;;;;22.58;12.43;;;;;;;9.67;62.38;100231.53;5092145;28;20032;-86
2023/12/25 02:51:53;;;;;;;21.58;11.85;;;;;;;9.67;62.85;100244.97;5113843;28;20063;-89
2023/12/25 02:54:19;;;;;;;21.88;12.65;;;;;;;9.34;63.46;100220.94;5110029;28;20031;-87
2023/12/25 02:56:44;;;;;;;24.48;14.50;;;;;;;9.48;63.97;100252.84;5089782;28;20101;-88
2023/12/25 02:59:10;;;;;;;22.33;12.90;;;;;;;9.28;64.26;100229.50;5089199;28;20621;-86
2023/12/25 03:01:35;;;;;;;27.80;15.27;;;;;;;9.19;64.57;100214.16;5089197;28;20024;-85
2023/12/25 03:04:01;;;;;;;22.73;12.23;;;;;;;9.14;64.68;100192.22;5089007;28;20415;-86
2023/12/25 03:06:26;;;;;;;20.58;12.13;;;;;;;9.32;64.72;100247.06;5088855;28;20024;-85
2023/12/25 03:08:52;;;;;;;21.40;12.60;;;;;;;9.21;65.02;100236.34;5088516;28;20050;-86
2023/12/25 03:11:17;;;;;;;25.65;12.75;;;;;;;9.04;65.07;100200.19;5089369;28;20023;-86
2023/12/25 03:13:43;;;;;;;22.38;13.27;;;;;;;9.10;65.08;100204.19;5090135;28;20181;-87
2023/12/25 03:16:08;;;;;;;25.75;14.98;;;;;;;9.22;65.27;100228.19;5093462;28;20032;-87
2023/12/25 03:18:34;;;;;;;33.70;14.95;;;;;;;9.11;65.44;100232.72;5093511;28;20099;-85
2023/12/25 03:21:00;;;;;;;26.80;15.55;;;;;;;9.24;65.45;100249.50;5092927;28;20518;-85
2023/12/25 03:23:26;;;;;;;23.25;14.73;;;;;;;9.08;65.51;100217.69;5093862;28;20085;-86
2023/12/25 03:25:51;;;;;;;25.88;15.15;;;;;;;9.24;65.28;100241.44;5092622;28;20032;-86
2023/12/25 03:28:17;;;;;;;27.00;14.70;;;;;;;9.10;65.06;100207.72;5093048;28;20064;-87
2023/12/25 03:30:42;;;;;;;25.77;15.20;;;;;;;9.39;65.11;100245.56;5093519;28;20022;-86
2023/12/25 03:33:08;;;;;;;24.70;15.43;;;;;;;9.28;65.02;100245.59;5095053;28;20119;-86
2023/12/25 03:35:34;;;;;;;23.15;14.60;;;;;;;9.20;65.40;100253.44;5095571;28;20020;-86
2023/12/25 03:38:00;;;;;;;31.63;15.43;;;;;;;8.85;65.45;100208.00;5095783;28;20028;-87
2023/12/25 03:40:25;;;;;;;25.60;15.73;;;;;;;9.00;65.73;100230.03;5102613;28;20027;-91
2023/12/25 03:42:53;;;;;;;32.20;16.67;;;;;;;8.92;66.37;100219.09;5117177;28;20115;-89
2023/12/25 03:45:18;;;;;;;25.50;16.92;;;;;;;9.04;66.08;100242.22;5106337;28;20024;-86
2023/12/25 03:47:44;;;;;;;25.52;14.93;;;;;;;9.00;66.14;100222.84;5092923;28;20161;-86
2023/12/25 03:50:10;;;;;;;30.98;15.35;;;;;;;9.12;65.98;100221.84;5105022;28;20050;-86
2023/12/25 03:52:35;;;;;;;30.40;14.90;;;;;;;9.07;65.98;100201.75;5092740;28;20448;-85
2023/12/25 03:55:01;;;;;;;30.48;14.30;;;;;;;9.16;65.69;100211.72;5092824;28;20084;-86
2023/12/25 03:57:26;;;;;;;31.23;17.35;;;;;;;9.20;65.57;100205.13;5093135;28;20558;-86
2023/12/25 03:59:52;;;;;;;49.67;26.50;;;;;;;9.25;65.57;100208.28;5092746;28;20031;-86
2023/12/25 04:02:17;;;;;;;32.67;19.05;;;;;;;9.34;65.14;100207.53;5092536;28;20024;-88
2023/12/25 04:04:43;;;;;;;30.92;15.43;;;;;;;9.26;65.15;100193.91;5091958;28;20365;-86
2023/12/25 04:07:08;;;;;;;21.75;14.38;;;;;;;9.09;65.03;100164.91;5091600;28;20766;-86
2023/12/25 04:09:34;;;;;;;32.45;14.88;;;;;;;9.41;65.03;100230.19;5092025;28;20020;-84
2023/12/25 04:11:59;;;;;;;21.75;14.13;;;;;;;9.20;64.98;100227.44;5091134;28;20127;-87
2023/12/25 04:14:25;;;;;;;28.85;16.52;;;;;;;9.14;65.18;100221.75;5092022;28;20055;-87
2023/12/25 04:16:50;;;;;;;29.90;15.85;;;;;;;8.71;65.62;100179.63;5091808;28;20024;-87
2023/12/25 04:19:16;;;;;;;20.08;13.35;;;;;;;9.01;66.32;100239.81;5091879;28;20024;-87
2023/12/25 04:21:41;;;;;;;19.38;12.65;;;;;;;8.67;66.52;100206.81;5092781;28;20030;-85
2023/12/25 04:24:07;;;;;;;16.10;11.20;;;;;;;8.43;66.96;100182.81;5091281;28;20034;-86
2023/12/25 04:26:33;;;;;;;17.63;10.82;;;;;;;8.75;67.58;100221.28;5095381;28;20043;-86
2023/12/25 04:28:58;;;;;;;22.63;11.48;;;;;;;8.89;67.57;100216.66;5093916;28;20093;-86
2023/12/25 04:31:24;;;;;;;26.85;15.00;;;;;;;9.04;67.09;100234.19;5107541;28;20036;-83
2023/12/25 04:33:50;;;;;;;25.88;14.68;;;;;;;8.90;67.00;100196.91;5111495;28;20039;-88
2023/12/25 04:36:15;;;;;;;21.55;12.93;;;;;;;9.01;66.95;100211.16;5097021;28;20438;-85
2023/12/25 04:38:41;;;;;;;20.58;11.35;;;;;;;8.90;66.35;100175.47;5092036;28;20410;-86
2023/12/25 04:41:07;;;;;;;19.42;12.60;;;;;;;9.06;66.13;100189.31;5091768;28;20525;-90
2023/12/25 04:43:32;;;;;;;21.55;12.25;;;;;;;9.29;65.74;100204.38;5092229;28;20028;-86
2023/12/25 04:45:58;;;;;;;20.42;11.60;;;;;;;8.92;65.38;100150.22;5091577;28;20016;-86
2023/12/25 04:48:24;;;;;;;28.52;11.75;;;;;;;9.39;65.13;100226.75;5091471;28;20067;-86
2023/12/25 04:50:49;;;;;;;18.17;11.40;;;;;;;9.25;65.50;100205.59;5092021;28;20050;-88
2023/12/25 04:53:15;;;;;;;23.17;12.00;;;;;;;9.32;65.16;100214.00;5091575;28;20035;-89
2023/12/25 04:55:41;;;;;;;21.10;12.60;;;;;;;9.29;65.40;100202.53;5090446;28;20024;-85
2023/12/25 04:58:07;;;;;;;20.10;11.38;;;;;;;9.33;65.20;100189.72;5091846;28;20039;-86
2023/12/25 05:00:33;;;;;;;15.90;9.80;;;;;;;9.51;64.96;100209.63;5092301;28;20231;-87
2023/12/25 05:02:59;;;;;;;12.70;9.35;;;;;;;9.46;64.95;100193.06;5092421;28;20107;-86
2023/12/25 05:05:25;;;;;;;22.42;9.98;;;;;;;9.55;64.80;100204.88;5091757;28;20028;-88
2023/12/25 05:07:51;;;;;;;16.10;10.30;;;;;;;9.61;64.43;100191.78;5091920;28;20046;-88
2023/12/25 05:10:17;;;;;;;19.50;10.48;;;;;;;9.76;63.88;100209.28;5091683;28;20140;-86
2023/12/25 05:12:43;;;;;;;36.85;10.32;;;;;;;9.89;63.67;100205.56;5092925;28;20400;-87
2023/12/25 05:15:09;;;;;;;28.20;9.65;;;;;;;9.88;63.43;100212.75;5093160;28;20533;-87
2023/12/25 05:17:34;;;;;;;18.15;9.30;;;;;;;10.01;63.42;100218.81;5095197;28;20024;-89
2023/12/25 05:20:00;;;;;;;17.95;9.43;;;;;;;10.09;63.09;100215.47;5093631;28;20016;-87
2023/12/25 05:22:25;;;;;;;35.05;9.50;;;;;;;9.94;62.89;100184.56;5115464;28;20024;-90
2023/12/25 05:24:51;;;;;;;19.55;8.00;;;;;;;10.07;62.54;100193.25;5112846;28;20019;-87
2023/12/25 05:27:16;;;;;;;22.50;9.38;;;;;;;10.21;62.78;100209.91;5091086;28;20020;-87
2023/12/25 05:29:42;;;;;;;11.23;6.28;;;;;;;10.26;62.54;100196.06;5088761;28;20060;-86
2023/12/25 05:32:07;;;;;;;7.88;4.93;;;;;;;10.32;62.49;100174.03;5090242;28;20039;-87
2023/12/25 05:34:33;;;;;;;17.10;5.95;;;;;;;10.54;62.13;100195.38;5090330;28;20453;-88
2023/12/25 05:36:58;;;;;;;14.23;6.03;;;;;;;10.82;61.66;100216.13;5090355;28;20089;-85
2023/12/25 05:39:24;;;;;;;11.10;7.25;;;;;;;10.83;61.40;100188.25;5090383;28;20032;-86
2023/12/25 05:41:50;;;;;;;12.45;6.57;;;;;;;11.09;61.16;100214.66;5089491;28;20480;-86
2023/12/25 05:44:17;;;;;;;33.13;8.30;;;;;;;11.02;60.56;100178.53;5090560;28;20385;-88
2023/12/25 05:46:42;;;;;;;44.00;9.40;;;;;;;11.13;60.16;100175.72;5090234;28;20058;-86
2023/12/25 05:49:08;;;;;;;11.77;6.70;;;;;;;11.26;59.61;100193.28;5089411;28;20055;-89
2023/12/25 05:51:34;;;;;;;75.43;29.20;;;;;;;11.31;59.56;100171.34;5089519;28;20047;-82
2023/12/25 05:53:59;;;;;;;53.00;22.52;;;;;;;11.57;58.80;100207.50;5089804;28;20047;-87
2023/12/25 05:56:25;;;;;;;42.03;17.65;;;;;;;11.60;58.09;100214.44;5087493;28;20412;-86
2023/12/25 05:58:50;;;;;;;24.80;10.43;;;;;;;11.66;58.14;100212.03;5089510;28;20031;-86
2023/12/25 06:01:16;;;;;;;19.95;9.70;;;;;;;11.58;58.11;100184.09;5089650;28;20020;-86
2023/12/25 06:03:42;;;;;;;18.83;7.00;;;;;;;11.80;57.97;100213.50;5091081;28;20031;-84
2023/12/25 06:06:08;;;;;;;17.65;6.97;;;;;;;11.54;57.98;100150.38;5092106;28;20024;-83
2023/12/25 06:08:34;;;;;;;23.90;9.52;;;;;;;11.71;57.93;100161.28;5091686;28;20035;-84
2023/12/25 06:11:00;;;;;;;17.30;7.00;;;;;;;12.11;57.38;100203.38;5097527;28;20084;-81
2023/12/25 06:13:26;;;;;;;29.58;9.02;;;;;;;12.12;57.21;100186.19;5114848;28;20028;-90
2023/12/25 06:15:52;;;;;;;21.88;7.68;;;;;;;12.18;56.47;100181.06;5104608;28;20024;-87
2023/12/25 06:18:17;;;;;;;29.98;10.40;;;;;;;12.27;56.53;100182.03;5087857;28;20038;-85
2023/12/25 06:20:43;;;;;;;26.95;8.55;;;;;;;12.44;56.48;100202.88;5067702;28;20032;-85
2023/12/25 06:23:09;;;;;;;18.48;8.40;;;;;;;12.35;56.03;100182.19;5069394;28;20033;-87
2023/12/25 06:25:36;;;;;;;20.15;7.65;;;;;;;12.40;55.99;100175.34;5094528;28;20082;-86
2023/12/25 06:28:01;;;;;;;22.77;9.93;;;;;;;12.44;55.78;100181.28;5094106;28;20469;-86
2023/12/25 06:30:27;;;;;;;20.38;8.45;;;;;;;12.62;55.87;100211.03;5090423;28;20030;-88
2023/12/25 06:32:53;;;;;;;28.63;10.93;;;;;;;12.75;55.57;100227.75;5089475;28;20123;-88
2023/12/25 06:35:18;;;;;;;16.38;8.45;;;;;;;12.80;55.51;100214.66;5089160;28;20024;-88
2023/12/25 06:37:44;;;;;;;16.90;8.73;;;;;;;12.76;55.31;100191.66;5088501;28;20124;-85
2023/12/25 06:40:10;;;;;;;21.13;9.75;;;;;;;12.93;55.37;100209.75;5088252;28;20441;-85
2023/12/25 06:42:35;;;;;;;26.17;10.60;;;;;;;12.98;55.05;100212.84;5090060;28;20020;-81
2023/12/25 06:45:01;;;;;;;21.40;10.30;;;;;;;13.01;55.12;100202.59;5086661;28;20419;-80
2023/12/25 06:47:26;;;;;;;21.45;9.60;;;;;;;12.97;55.23;100212.00;5086970;28;20031;-81
2023/12/25 06:49:52;;;;;;;13.32;8.45;;;;;;;13.05;54.58;100220.22;5087759;28;20127;-81
2023/12/25 06:52:18;;;;;;;13.25;7.28;;;;;;;13.04;54.10;100212.25;5087530;28;20393;-78
2023/12/25 06:54:44;;;;;;;13.18;7.70;;;;;;;13.09;54.18;100224.31;5087677;28;20024;-78
2023/12/25 06:57:11;;;;;;;17.48;7.82;;;;;;;13.06;53.72;100215.63;5089498;28;20024;-78
2023/12/25 06:59:37;;;;;;;16.98;7.90;;;;;;;12.93;53.90;100190.88;5090015;28;20028;-79
2023/12/25 07:02:03;;;;;;;15.13;9.60;;;;;;;12.92;54.00;100203.50;5099406;28;20035;-80
2023/12/25 07:04:28;;;;;;;24.45;10.00;;;;;;;13.01;54.06;100213.41;5101916;28;20028;-80
2023/12/25 07:06:54;;;;;;;21.40;10.65;;;;;;;12.96;54.27;100202.22;5092525;28;20085;-82
2023/12/25 07:09:19;;;;;;;23.60;10.93;;;;;;;13.15;54.24;100222.03;5089147;28;20041;-87
2023/12/25 07:11:45;;;;;;;23.67;13.45;;;;;;;13.08;54.00;100208.28;5087514;28;20514;-82
2023/12/25 07:14:10;;;;;;;29.92;13.75;;;;;;;13.28;53.84;100249.50;5087673;28;20024;-83
2023/12/25 07:16:36;;;;;;;35.40;13.57;;;;;;;13.28;53.87;100239.56;5087863;28;20081;-81
2023/12/25 07:19:02;;;;;;;26.25;10.43;;;;;;;13.35;53.60;100253.31;5087767;28;20043;-78
2023/12/25 07:21:28;;;;;;;25.67;9.95;;;;;;;13.37;53.82;100262.09;5087107;28;20047;-78
2023/12/25 07:23:54;;;;;;;26.67;10.38;;;;;;;13.27;53.33;100245.13;5087808;28;20020;-80
2023/12/25 07:26:19;;;;;;;24.77;10.73;;;;;;;13.34;53.51;100263.25;5087670;28;20079;-78
2023/12/25 07:28:45;;;;;;;29.45;10.50;;;;;;;13.38;53.32;100259.28;5087735;28;20038;-83
2023/12/25 07:31:11;;;;;;;28.63;12.02;;;;;;;13.28;53.20;100236.00;5089978;28;20085;-80
2023/12/25 07:33:37;;;;;;;24.92;12.77;;;;;;;13.38;52.83;100256.56;5088619;28;20028;-82
2023/12/25 07:36:04;;;;;;;19.98;10.65;;;;;;;13.30;53.21;100253.75;5087445;28;20032;-82
2023/12/25 07:38:30;;;;;;;24.27;11.82;;;;;;;13.20;53.30;100246.72;5085496;28;20039;-79
2023/12/25 07:40:57;;;;;;;22.27;12.30;;;;;;;13.08;53.87;100236.16;5086385;28;20512;-78
2023/12/25 07:43:24;;;;;;;32.88;12.43;;;;;;;13.34;53.43;100263.25;5086471;28;20043;-78
2023/12/25 07:45:49;;;;;;;19.00;10.63;;;;;;;13.37;53.50;100264.81;5087504;28;20031;-76
2023/12/25 07:48:16;;;;;;;28.13;11.38;;;;;;;13.40;53.31;100261.81;5087254;28;20115;-78
2023/12/25 07:50:42;;;;;;;23.88;13.05;;;;;;;13.46;53.29;100266.59;5087293;28;20028;-83
2023/12/25 07:53:08;;;;;;;32.03;11.40;;;;;;;13.35;53.43;100242.50;5102669;28;20020;-81
2023/12/25 07:55:36;;;;;;;28.13;11.77;;;;;;;13.49;53.15;100258.19;5099827;28;20032;-81
2023/12/25 07:58:02;;;;;;;27.35;11.50;;;;;;;13.40;53.26;100261.81;5088566;28;20028;-81
2023/12/25 08:00:27;;;;;;;20.25;10.90;;;;;;;13.46;53.22;100250.38;5091755;28;20051;-83
2023/12/25 08:02:53;;;;;;;20.45;10.77;;;;;;;13.42;53.06;100255.25;5091063;28;20112;-81
2023/12/25 08:05:18;;;;;;;22.90;10.07;;;;;;;13.38;52.68;100244.91;5091480;28;20016;-81
2023/12/25 08:07:44;;;;;;;16.13;9.43;;;;;;;13.25;53.07;100242.56;5091109;28;20025;-79
2023/12/25 08:10:11;;;;;;;14.05;8.32;;;;;;;13.37;53.05;100235.09;5091041;28;20095;-81
2023/12/25 08:12:38;;;;;;;22.15;8.65;;;;;;;13.43;52.74;100242.59;5091698;28;20026;-81
2023/12/25 08:15:04;;;;;;;32.00;14.57;;;;;;;13.33;52.13;100229.13;5090887;28;20081;-83
2023/12/25 08:17:29;;;;;;;33.17;15.55;;;;;;;13.31;52.23;100241.09;5090110;28;20111;-83
2023/12/25 08:19:55;;;;;;;39.22;18.80;;;;;;;13.50;52.36;100278.81;5091287;28;20146;-80
2023/12/25 08:22:20;;;;;;;29.88;14.15;;;;;;;13.38;52.29;100247.59;5091474;28;20039;-82
2023/12/25 08:24:49;;;;;;;16.83;11.13;;;;;;;13.27;52.23;100235.16;5090849;28;20032;-82
2023/12/25 08:27:15;;;;;;;24.88;9.48;;;;;;;13.19;52.49;100220.72;5090877;28;20035;-82
2023/12/25 08:29:42;;;;;;;28.30;11.02;;;;;;;13.43;52.62;100275.00;5092138;28;20044;-82
2023/12/25 08:32:08;;;;;;;26.67;12.13;;;;;;;13.34;52.30;100260.56;5092615;28;20115;-81
2023/12/25 08:34:37;;;;;;;24.33;9.70;;;;;;;13.37;52.61;100260.25;5093569;28;20063;-80
2023/12/25 08:37:03;;;;;;;21.20;8.95;;;;;;;13.26;52.59;100240.72;5094736;28;20035;-82
2023/12/25 08:39:28;;;;;;;25.80;9.88;;;;;;;13.35;52.81;100258.72;5093285;28;20028;-81
2023/12/25 08:41:54;;;;;;;19.42;8.40;;;;;;;13.32;52.98;100243.66;5107724;28;20017;-83
2023/12/25 08:44:19;;;;;;;23.70;9.45;;;;;;;13.31;52.83;100241.97;5112433;28;20004;-82
2023/12/25 08:46:46;;;;;;;26.30;11.82;;;;;;;13.42;52.84;100243.63;5094249;28;20035;-82
2023/12/25 08:49:12;;;;;;;27.33;13.25;;;;;;;13.38;53.14;100217.91;5091927;28;20028;-84
2023/12/25 08:51:38;;;;;;;24.13;11.88;;;;;;;13.28;53.07;100190.09;5092050;28;20043;-85
2023/12/25 08:54:04;;;;;;;26.30;11.30;;;;;;;13.22;52.97;100148.34;5094325;28;20512;-84
2023/12/25 08:56:29;;;;;;;23.38;10.23;;;;;;;13.53;52.91;100182.09;5090065;28;20032;-82
2023/12/25 08:58:57;;;;;;;24.70;9.75;;;;;;;13.65;52.52;100185.41;5090469;28;20500;-81
2023/12/25 09:01:26;;;;;;;18.17;9.45;;;;;;;13.74;52.33;100189.88;5090302;28;20024;-82
2023/12/25 09:03:52;;;;;;;19.63;8.48;;;;;;;13.66;52.26;100165.50;5090404;28;20083;-83
2023/12/25 09:06:17;;;;;;;20.92;9.70;;;;;;;13.87;51.83;100190.34;5089000;28;20173;-81
2023/12/25 09:08:43;;;;;;;19.27;8.07;;;;;;;13.82;51.62;100170.19;5090419;28;20024;-81
2023/12/25 09:11:09;;;;;;;13.65;7.55;;;;;;;13.97;51.50;100193.81;5090071;28;20028;-81
2023/12/25 09:13:35;;;;;;;21.30;8.07;;;;;;;13.85;51.55;100178.81;5089924;28;20047;-80
2023/12/25 09:16:01;;;;;;;12.68;7.00;;;;;;;14.04;51.40;100189.44;5089762;28;20022;-82
2023/12/25 09:18:29;;;;;;;16.13;8.07;;;;;;;14.08;51.40;100192.69;5090414;28;20039;-83
2023/12/25 09:20:57;;;;;;;28.17;7.75;;;;;;;14.00;51.68;100152.09;5090170;28;20035;-83
2023/12/25 09:23:22;;;;;;;22.63;8.32;;;;;;;14.23;51.73;100184.84;5090091;28;20419;-80
2023/12/25 09:25:48;;;;;;;20.35;9.18;;;;;;;14.18;51.45;100167.25;5088839;28;20112;-80
2023/12/25 09:28:13;;;;;;;20.02;8.57;;;;;;;14.33;51.53;100166.69;5091217;28;20404;-80
2023/12/25 09:30:39;;;;;;;19.70;8.40;;;;;;;14.43;51.32;100167.44;5092484;28;20035;-80
2023/12/25 09:33:05;;;;;;;37.67;10.98;;;;;;;14.39;51.16;100139.84;5090587;28;20039;-79
2023/12/25 09:35:30;;;;;;;35.58;8.75;;;;;;;14.56;50.82;100154.28;5098024;28;20024;-79
2023/12/25 09:37:56;;;;;;;22.25;9.05;;;;;;;14.67;50.36;100156.72;5096588;28;20020;-77
2023/12/25 09:40:22;;;;;;;19.02;8.48;;;;;;;14.76;50.15;100155.75;5089117;28;20032;-77
2023/12/25 09:42:49;;;;;;;16.90;8.02;;;;;;;14.83;50.00;100161.38;5086292;28;20062;-78
2023/12/25 09:45:17;;;;;;;20.15;8.85;;;;;;;14.70;50.00;100130.19;5089177;28;20020;-79
2023/12/25 09:47:44;;;;;;;17.15;9.73;;;;;;;15.02;50.12;100158.38;5088385;28;20086;-77
2023/12/25 09:50:11;;;;;;;26.15;10.15;;;;;;;15.10;49.45;100159.25;5087455;28;20431;-78
2023/12/25 09:52:37;;;;;;;24.65;10.98;;;;;;;15.25;49.38;100157.59;5088061;28;20569;-75
2023/12/25 09:55:03;;;;;;;32.20;10.75;;;;;;;15.34;49.51;100149.47;5088471;28;20099;-76
2023/12/25 09:57:30;;;;;;;20.75;9.40;;;;;;;15.55;49.13;100168.84;5086497;28;20519;-78
2023/12/25 09:59:56;;;;;;;21.42;9.57;;;;;;;15.64;48.79;100162.41;5087676;28;20032;-76
2023/12/25 10:02:23;;;;;;;52.28;16.63;;;;;;;15.81;48.82;100153.25;5088370;28;20399;-77
2023/12/25 10:04:50;;;;;;;46.40;13.27;;;;;;;15.88;48.76;100127.16;5086585;28;20051;-78
2023/12/25 10:07:20;;;;;;;37.30;14.50;;;;;;;16.17;48.21;100149.19;5088504;28;20024;-76
2023/12/25 10:09:55;;;;;;;82.95;16.38;;;;;;;16.19;47.43;100135.44;5087006;28;20095;-75
2023/12/25 10:12:21;;;;;;;34.45;11.18;;;;;;;16.44;47.61;100145.22;5088272;28;20505;-74
2023/12/25 10:14:47;;;;;;;27.33;12.02;;;;;;;16.61;47.24;100146.88;5088353;28;20092;-76
2023/12/25 10:17:12;;;;;;;30.45;10.60;;;;;;;16.82;47.32;100144.41;5088366;28;20031;-79
2023/12/25 10:19:51;;;;;;;19.40;10.38;;;;;;;16.95;46.79;100129.41;5088683;28;20028;-75
2023/12/25 10:22:35;;;;;;;20.60;10.30;;;;;;;17.29;46.14;100135.31;5098701;28;20016;-75
2023/12/25 10:25:18;;;;;;;22.83;8.93;;;;;;;17.42;45.55;100113.84;5089132;28;20071;-77
2023/12/25 10:27:44;;;;;;;15.80;7.25;;;;;;;17.47;44.82;100121.44;5087225;28;20028;-75
2023/12/25 10:30:19;;;;;;;13.55;6.70;;;;;;;17.55;44.15;100113.25;5086551;28;20028;-77
2023/12/25 10:32:47;;;;;;;11.85;6.10;;;;;;;17.51;44.15;100073.81;5084557;28;20020;-76
2023/12/25 10:35:14;;;;;;;20.00;7.22;;;;;;;17.74;43.81;100110.88;5087214;28;20039;-75
2023/12/25 10:37:41;;;;;;;12.80;6.03;;;;;;;17.89;42.58;100105.47;5087856;28;20024;-76
2023/12/25 10:40:27;;;;;;;21.27;6.63;;;;;;;18.07;41.03;100094.25;5087048;28;20491;-77
2023/12/25 10:42:56;;;;;;;10.40;5.28;;;;;;;18.17;41.20;100098.38;5085061;28;20114;-76
2023/12/25 10:45:23;;;;;;;11.80;4.43;;;;;;;18.26;40.61;100107.28;5086892;28;20032;-75
2023/12/25 10:47:51;;;;;;;10.48;5.07;;;;;;;18.38;40.28;100093.03;5084941;28;20032;-78
2023/12/25 10:50:20;;;;;;;15.30;4.72;;;;;;;18.48;40.08;100090.88;5087290;28;20127;-78
2023/12/25 10:52:50;;;;;;;9.70;4.53;;;;;;;18.59;40.11;100107.81;5087526;28;20109;-75
2023/12/25 10:55:37;;;;;;;12.27;4.93;;;;;;;18.68;39.79;100104.81;5087018;28;20415;-75
2023/12/25 10:58:08;;;;;;;11.02;5.05;;;;;;;18.70;39.52;100099.16;5086139;28;20096;-78
2023/12/25 11:00:40;;;;;;;13.07;6.10;;;;;;;18.76;39.03;100093.78;5087828;28;20434;-77
2023/12/25 11:03:06;;;;;;;15.23;6.22;;;;;;;18.79;38.88;100077.06;5087895;28;20028;-78
2023/12/25 11:05:33;;;;;;;15.32;4.95;;;;;;;18.81;38.55;100082.31;5086118;28;20627;-76
2023/12/25 11:07:59;;;;;;;17.10;5.28;;;;;;;18.90;38.61;100089.34;5086005;28;20043;-76
2023/12/25 11:10:27;;;;;;;15.55;6.13;;;;;;;18.94;38.50;100079.75;5086928;28;20415;-77
2023/12/25 11:12:54;;;;;;;20.20;6.03;;;;;;;19.00;38.38;100092.59;5063742;28;20056;-78